TimeCDT,TemperatureF,Dew PointF,Humidity,Sea Level PressureIn,VisibilityMPH,Wind Direction,Wind SpeedMPH,Gust SpeedMPH,PrecipitationIn,Events,Conditions,WindDirDegrees,DateUTC
12:15 AM,48.0,45.7,92,29.96,10.0,Calm,Calm,-,N/A,,Clear,0,2013-09-25 05:15:00
12:35 AM,45.7,43.3,92,29.97,10.0,Calm,Calm,-,N/A,,Clear,0,2013-09-25 05:35:00
12:55 AM,45.7,43.3,92,29.97,10.0,Calm,Calm,-,N/A,,Clear,0,2013-09-25 05:55:00
1:15 AM,45.7,43.2,91,29.97,10.0,Calm,Calm,-,N/A,,Clear,0,2013-09-25 06:15:00
1:35 AM,45.7,43.0,90,29.97,10.0,Calm,Calm,-,N/A,,Clear,0,2013-09-25 06:35:00
1:55 AM,45.3,43.2,92,29.97,10.0,Calm,Calm,-,N/A,,Clear,0,2013-09-25 06:55:00
2:35 AM,44.6,42.4,92,29.98,10.0,Calm,Calm,-,N/A,,Clear,0,2013-09-25 07:35:00
2:55 AM,45.5,43.7,93,29.97,10.0,Calm,Calm,-,N/A,,Clear,0,2013-09-25 07:55:00
3:15 AM,45.3,43.7,94,29.98,10.0,Calm,Calm,-,N/A,,Clear,0,2013-09-25 08:15:00
3:35 AM,43.9,41.9,93,29.98,10.0,Calm,Calm,-,N/A,,Clear,0,2013-09-25 08:35:00
3:55 AM,44.6,43.7,97,29.98,10.0,Calm,Calm,-,N/A,,Clear,0,2013-09-25 08:55:00
4:35 AM,44.4,43.2,95,29.98,10.0,SE,3.5,-,N/A,,Clear,140,2013-09-25 09:35:00
4:55 AM,44.6,43.7,97,29.98,10.0,Calm,Calm,-,N/A,,Clear,0,2013-09-25 09:55:00
5:15 AM,46.9,45.9,96,29.98,10.0,Calm,Calm,-,N/A,,Clear,0,2013-09-25 10:15:00
5:35 AM,43.0,41.9,96,29.98,10.0,Calm,Calm,-,N/A,,Clear,0,2013-09-25 10:35:00
5:55 AM,42.4,41.0,95,29.99,10.0,Calm,Calm,-,N/A,,Clear,0,2013-09-25 10:55:00
6:15 AM,43.7,42.6,96,29.99,10.0,Calm,Calm,-,N/A,,Clear,0,2013-09-25 11:15:00
6:35 AM,48.4,47.8,98,29.99,10.0,Calm,Calm,-,N/A,,Clear,0,2013-09-25 11:35:00
6:55 AM,46.0,45.0,96,30.00,10.0,SE,3.5,-,N/A,,Clear,130,2013-09-25 11:55:00
7:15 AM,48.6,47.7,97,30.00,10.0,SE,3.5,-,N/A,,Clear,130,2013-09-25 12:15:00
7:35 AM,48.9,47.8,96,30.00,7.0,SE,3.5,-,N/A,,Clear,140,2013-09-25 12:35:00
7:55 AM,49.5,48.4,96,30.00,7.0,SE,3.5,-,N/A,,Clear,140,2013-09-25 12:55:00
8:15 AM,50.4,49.1,95,30.00,10.0,Calm,Calm,-,N/A,,Clear,0,2013-09-25 13:15:00
8:35 AM,52.3,50.0,92,30.00,10.0,Calm,Calm,-,N/A,,Clear,0,2013-09-25 13:35:00
8:55 AM,54.0,50.9,89,30.00,10.0,SE,4.6,-,N/A,,Clear,130,2013-09-25 13:55:00
9:15 AM,55.4,50.9,85,30.00,10.0,SSE,3.5,-,N/A,,Clear,150,2013-09-25 14:15:00
9:35 AM,56.7,51.1,82,30.00,10.0,Calm,Calm,-,N/A,,Clear,0,2013-09-25 14:35:00
9:55 AM,59.0,52.0,78,30.00,10.0,SE,3.5,-,N/A,,Clear,140,2013-09-25 14:55:00
10:15 AM,60.3,52.3,75,30.00,10.0,SE,3.5,-,N/A,,Clear,140,2013-09-25 15:15:00
10:35 AM,62.4,52.9,71,30.00,10.0,Calm,Calm,-,N/A,,Clear,0,2013-09-25 15:35:00
10:55 AM,64.6,53.1,66,30.00,10.0,SSE,4.6,-,N/A,,Clear,160,2013-09-25 15:55:00
11:15 AM,66.2,52.7,62,30.00,10.0,SE,6.9,-,N/A,,Clear,130,2013-09-25 16:15:00
11:35 AM,67.3,52.3,59,30.00,10.0,ESE,6.9,-,N/A,,Clear,120,2013-09-25 16:35:00
11:55 AM,68.4,52.0,56,29.99,10.0,SE,6.9,-,N/A,,Clear,130,2013-09-25 16:55:00
12:15 PM,68.9,50.9,53,29.99,10.0,SE,8.1,-,N/A,,Clear,140,2013-09-25 17:15:00
12:35 PM,69.8,49.6,49,29.98,10.0,South,10.4,-,N/A,,Clear,180,2013-09-25 17:35:00
1:15 PM,70.3,49.5,47,29.97,10.0,South,8.1,-,N/A,,Clear,170,2013-09-25 18:15:00
1:55 PM,71.2,50.2,47,29.95,10.0,South,5.8,-,N/A,,Clear,170,2013-09-25 18:55:00
2:15 PM,71.6,49.8,46,29.94,10.0,SSE,9.2,-,N/A,,Clear,160,2013-09-25 19:15:00
2:35 PM,71.2,49.5,46,29.94,10.0,SE,8.1,-,N/A,,Clear,140,2013-09-25 19:35:00
2:55 PM,71.8,49.5,45,29.94,10.0,SSE,3.5,-,N/A,,Clear,160,2013-09-25 19:55:00
3:15 PM,72.0,50.0,46,29.93,10.0,ESE,5.8,-,N/A,,Clear,110,2013-09-25 20:15:00
3:55 PM,71.8,50.2,46,29.93,10.0,SE,6.9,-,N/A,,Clear,130,2013-09-25 20:55:00
4:15 PM,71.8,49.6,45,29.93,10.0,SE,4.6,-,N/A,,Clear,130,2013-09-25 21:15:00
4:35 PM,72.1,49.8,45,29.92,10.0,SE,6.9,-,N/A,,Clear,130,2013-09-25 21:35:00
4:55 PM,70.7,50.2,48,29.93,10.0,SE,4.6,-,N/A,,Clear,140,2013-09-25 21:55:00
5:15 PM,71.6,50.2,47,29.92,10.0,SE,6.9,-,N/A,,Clear,130,2013-09-25 22:15:00
5:35 PM,71.1,50.4,48,29.92,10.0,SE,8.1,-,N/A,,Clear,130,2013-09-25 22:35:00
5:55 PM,70.3,50.4,49,29.93,10.0,SE,5.8,-,N/A,,Clear,130,2013-09-25 22:55:00
6:15 PM,69.3,50.9,52,29.92,10.0,SE,4.6,-,N/A,,Clear,140,2013-09-25 23:15:00
6:35 PM,68.0,50.4,53,29.92,10.0,SSE,4.6,-,N/A,,Clear,150,2013-09-25 23:35:00
6:55 PM,66.4,50.2,56,29.92,10.0,SE,3.5,-,N/A,,Clear,140,2013-09-25 23:55:00
7:15 PM,63.3,50.9,64,29.92,10.0,SE,3.5,-,N/A,,Clear,140,2013-09-26 00:15:00
7:35 PM,59.9,51.6,74,29.92,10.0,Calm,Calm,-,N/A,,Clear,0,2013-09-26 00:35:00
7:55 PM,60.4,50.9,71,29.93,10.0,SE,3.5,-,N/A,,Clear,130,2013-09-26 00:55:00
8:15 PM,57.4,49.8,76,29.93,10.0,SE,3.5,-,N/A,,Clear,130,2013-09-26 01:15:00
8:35 PM,58.5,49.8,73,29.93,10.0,SE,3.5,-,N/A,,Clear,130,2013-09-26 01:35:00
8:55 PM,58.5,49.8,73,29.93,10.0,ESE,3.5,-,N/A,,Clear,120,2013-09-26 01:55:00
9:15 PM,57.9,49.8,74,29.94,10.0,ESE,3.5,-,N/A,,Clear,120,2013-09-26 02:15:00
9:35 PM,57.4,49.3,74,29.93,10.0,SE,4.6,-,N/A,,Clear,130,2013-09-26 02:35:00
9:55 PM,57.2,49.1,74,29.94,10.0,SE,3.5,-,N/A,,Clear,130,2013-09-26 02:55:00
10:15 PM,56.7,48.6,74,29.94,10.0,ESE,4.6,-,N/A,,Clear,120,2013-09-26 03:15:00
10:35 PM,55.2,48.0,77,29.94,10.0,SE,3.5,-,N/A,,Clear,130,2013-09-26 03:35:00
10:55 PM,55.2,48.2,77,29.95,10.0,Calm,Calm,-,N/A,,Clear,0,2013-09-26 03:55:00
11:15 PM,50.0,45.7,85,29.96,10.0,Calm,Calm,-,N/A,,Clear,0,2013-09-26 04:15:00
11:35 PM,48.0,45.3,90,29.96,10.0,Calm,Calm,-,N/A,,Clear,0,2013-09-26 04:35:00
11:55 PM,47.7,45.9,93,29.97,10.0,Calm,Calm,-,N/A,,Clear,0,2013-09-26 04:55:00